Aviation Digital Data Service (ADDS)

Output produced by METARs form (0033 UTC 29 July 2014)
found at http://aviationweather.gov/adds/metars/
 
KDEN 282333Z 2900/3006 17012G20KT P6SM TS SCT060CB BKN110 
     TEMPO 2900/2902 VRB15G30KT 5SM TSRA BKN050CB 
     FM290200 19012KT P6SM TS BKN060CB BKN100 
     TEMPO 2902/2904 VRB15G25KT 4SM TSRA BKN050CB 
     FM290600 22012KT P6SM SCT070 BKN120 
     FM291200 27007KT P6SM SCT050 BKN200 
     FM291500 01006KT P6SM SCT040 BKN100 
     FM291900 08009KT P6SM VCSH SCT040 BKN070 
     TEMPO 2920/2924 VRB20G35KT 5SM +TSRA BKN040CB 
     FM300000 11008KT 5SM TSRA SCT030 OVC060CB 
     TEMPO 3000/3004 VRB20G30KT 3SM +TSRA OVC030CB